createdAt,value
2022-11-23T00:03:58.122Z,98467.50
2022-11-23T00:06:30.821Z,98475.28
2022-11-23T00:09:35.172Z,98464.84
2022-11-23T00:12:10.125Z,98472.97
2022-11-23T00:14:40.757Z,98470.91
2022-11-23T00:18:32.308Z,98472.78
2022-11-23T00:26:36.745Z,98477.13
2022-11-23T00:28:24.070Z,98473.22
2022-11-23T00:34:27.977Z,98480.59
2022-11-23T00:37:25.640Z,98484.94
2022-11-23T00:43:24.624Z,98481.91
2022-11-23T00:46:03.136Z,98486.22
2022-11-23T00:51:31.792Z,98481.41
2022-11-23T00:54:22.922Z,98481.78
2022-11-23T00:56:50.034Z,98491.16
2022-11-23T00:59:28.502Z,98477.59
2022-11-23T01:02:14.205Z,98476.03
2022-11-23T01:04:43.788Z,98485.09
2022-11-23T01:10:14.450Z,98491.00
2022-11-23T01:12:45.040Z,98489.63
2022-11-23T01:15:30.645Z,98490.88
2022-11-23T01:21:04.758Z,98492.63
2022-11-23T01:23:40.280Z,98486.00
2022-11-23T01:26:09.659Z,98496.66
2022-11-23T01:28:37.736Z,98489.31
2022-11-23T01:31:16.161Z,98497.38
2022-11-23T01:33:44.589Z,98511.94
2022-11-23T01:36:11.557Z,98491.72
2022-11-23T01:38:42.528Z,98499.97
2022-11-23T01:41:11.646Z,98500.78
2022-11-23T01:43:38.639Z,98494.78
2022-11-23T01:46:12.148Z,98495.00
2022-11-23T01:48:47.480Z,98499.09
2022-11-23T01:51:31.128Z,98502.94
2022-11-23T01:54:01.050Z,98497.00
2022-11-23T01:56:32.519Z,98501.06
2022-11-23T01:59:03.359Z,98496.56
2022-11-23T02:01:32.245Z,98501.00
2022-11-23T02:04:00.881Z,98503.28
2022-11-23T02:06:27.700Z,98506.63
2022-11-23T02:08:54.421Z,98507.41
2022-11-23T02:11:25.127Z,98510.63
2022-11-23T02:13:56.989Z,98507.38
2022-11-23T02:16:23.656Z,98508.75
2022-11-23T02:18:51.338Z,98503.53
2022-11-23T02:21:20.214Z,98506.97
2022-11-23T02:23:59.881Z,98507.72
2022-11-23T02:26:34.861Z,98509.13
2022-11-23T02:29:18.204Z,98506.09
2022-11-23T02:31:47.065Z,98505.78
2022-11-23T02:34:16.610Z,98514.31
2022-11-23T02:36:53.369Z,98510.00
2022-11-23T02:39:31.163Z,98516.38
2022-11-23T02:41:58.890Z,98516.53
2022-11-23T02:44:37.597Z,98517.56
2022-11-23T02:47:06.752Z,98525.38
2022-11-23T02:49:33.686Z,98532.97
2022-11-23T02:52:00.790Z,98540.34
2022-11-23T02:54:31.539Z,98541.19
2022-11-23T02:56:58.167Z,98541.78
2022-11-23T02:59:24.901Z,98562.53
2022-11-23T03:01:53.108Z,98563.13
2022-11-23T03:04:25.881Z,98579.09
2022-11-23T03:06:54.149Z,98575.41
2022-11-23T03:09:20.801Z,98583.38
2022-11-23T03:11:54.764Z,98585.75
2022-11-23T03:14:22.001Z,98580.97
2022-11-23T03:16:53.338Z,98584.25
2022-11-23T03:19:20.588Z,98583.25
2022-11-23T03:21:48.461Z,98582.47
2022-11-23T03:24:18.568Z,98593.38
2022-11-23T03:26:49.211Z,98590.28
2022-11-23T03:29:26.448Z,98593.66
2022-11-23T03:31:54.620Z,98583.06
2022-11-23T03:34:21.666Z,98591.03
2022-11-23T03:36:51.219Z,98587.38
2022-11-23T03:39:20.191Z,98586.53
2022-11-23T03:41:56.185Z,98590.03
2022-11-23T03:44:28.474Z,98576.59
2022-11-23T03:46:55.131Z,98582.34
2022-11-23T03:49:21.747Z,98590.50
2022-11-23T03:51:53.285Z,98576.97
2022-11-23T03:54:19.959Z,98586.78
2022-11-23T03:56:50.370Z,98592.56
2022-11-23T03:59:17.575Z,98606.59
2022-11-23T04:01:46.215Z,98596.03
2022-11-23T04:04:19.702Z,98608.19
2022-11-23T04:07:02.511Z,98611.88
2022-11-23T04:09:33.241Z,98618.03
2022-11-23T04:12:06.389Z,98611.56
2022-11-23T04:14:35.851Z,98611.72
2022-11-23T04:17:03.130Z,98624.03
2022-11-23T04:19:30.812Z,98632.84
2022-11-23T04:22:01.106Z,98643.06
2022-11-23T04:24:33.800Z,98647.25
2022-11-23T04:27:03.657Z,98654.44
2022-11-23T04:29:30.874Z,98648.16
2022-11-23T04:31:57.753Z,98653.72
2022-11-23T04:34:24.388Z,98645.78
2022-11-23T04:36:53.135Z,98640.53
2022-11-23T04:39:26.024Z,98644.38
2022-11-23T04:42:13.812Z,98645.06
2022-11-23T04:44:46.778Z,98644.97
2022-11-23T04:47:16.904Z,98638.13
2022-11-23T04:49:45.538Z,98642.88
2022-11-23T04:52:12.469Z,98638.78
2022-11-23T04:54:46.036Z,98645.53
2022-11-23T04:57:12.718Z,98654.16
2022-11-23T04:59:39.947Z,98657.69
2022-11-23T05:02:06.959Z,98664.47
2022-11-23T05:04:53.921Z,98673.88
2022-11-23T05:07:24.297Z,98675.22
2022-11-23T05:09:56.433Z,98678.50
2022-11-23T05:12:23.203Z,98687.53
2022-11-23T05:14:50.433Z,98691.44
2022-11-23T05:17:23.155Z,98688.00
2022-11-23T05:19:52.099Z,98699.09
2022-11-23T05:22:19.728Z,98703.47
2022-11-23T05:24:49.359Z,98711.69
2022-11-23T05:27:19.355Z,98707.63
2022-11-23T05:29:46.238Z,98711.38
2022-11-23T05:32:13.759Z,98708.13
2022-11-23T05:34:40.888Z,98715.06
2022-11-23T05:37:09.791Z,98713.47
2022-11-23T05:39:42.537Z,98732.09
2022-11-23T05:42:09.439Z,98731.47
2022-11-23T05:44:39.073Z,98731.88
2022-11-23T05:47:10.005Z,98743.72
2022-11-23T05:49:38.052Z,98748.41
2022-11-23T05:52:11.289Z,98745.16
2022-11-23T05:54:39.256Z,98753.09
2022-11-23T05:57:09.943Z,98752.28
2022-11-23T05:59:41.556Z,98751.69
2022-11-23T06:02:11.829Z,98744.53
2022-11-23T06:04:38.545Z,98756.78
2022-11-23T06:07:11.770Z,98749.22
2022-11-23T06:10:13.916Z,98749.03
2022-11-23T06:12:46.167Z,98749.03
2022-11-23T06:15:15.537Z,98753.75
2022-11-23T06:17:42.297Z,98766.19
2022-11-23T06:20:14.083Z,98769.44
2022-11-23T06:22:44.450Z,98773.13
2022-11-23T06:25:11.328Z,98775.56
2022-11-23T06:27:55.847Z,98782.72
2022-11-23T06:30:27.336Z,98781.91
2022-11-23T06:32:57.796Z,98791.72
2022-11-23T06:35:24.747Z,98803.13
2022-11-23T06:37:53.432Z,98804.97
2022-11-23T06:40:20.430Z,98813.31
2022-11-23T06:42:48.468Z,98818.22
2022-11-23T06:45:31.282Z,98830.25
2022-11-23T06:48:01.849Z,98836.19
2022-11-23T06:50:28.990Z,98834.38
2022-11-23T06:52:58.579Z,98847.22
2022-11-23T06:55:36.767Z,98853.16
2022-11-23T06:58:04.401Z,98848.00
2022-11-23T07:00:31.122Z,98856.41
2022-11-23T07:02:57.901Z,98855.38
2022-11-23T07:05:24.726Z,98869.47
2022-11-23T07:07:51.553Z,98860.22
2022-11-23T07:10:25.788Z,98865.97
2022-11-23T07:13:08.730Z,98865.38
2022-11-23T07:15:37.178Z,98863.94
2022-11-23T07:18:04.755Z,98865.78
2022-11-23T07:20:32.171Z,98869.47
2022-11-23T07:23:03.903Z,98871.69
2022-11-23T07:25:31.356Z,98863.91
2022-11-23T07:28:00.432Z,98863.69
2022-11-23T07:30:30.354Z,98863.44
2022-11-23T07:33:09.249Z,98861.63
2022-11-23T07:35:38.317Z,98855.91
2022-11-23T07:38:07.967Z,98860.78
2022-11-23T07:40:38.843Z,98877.34
2022-11-23T07:43:09.751Z,98877.75
2022-11-23T07:45:37.355Z,98870.41
2022-11-23T07:48:10.156Z,98871.00
2022-11-23T07:50:38.036Z,98882.00
2022-11-23T07:53:07.409Z,98876.25
2022-11-23T07:55:34.346Z,98879.94
2022-11-23T07:58:00.946Z,98884.00
2022-11-23T08:00:29.103Z,98886.47
2022-11-23T08:03:26.130Z,98886.84
2022-11-23T08:05:46.920Z,98886.25
2022-11-23T08:08:13.815Z,98887.63
2022-11-23T08:10:46.166Z,98881.88
2022-11-23T08:13:22.084Z,98879.03
2022-11-23T08:15:54.875Z,98876.56
2022-11-23T08:18:24.603Z,98873.09
2022-11-23T08:20:54.132Z,98874.09
2022-11-23T08:23:29.691Z,98874.47
2022-11-23T08:26:07.861Z,98861.53
2022-11-23T08:28:39.870Z,98854.34
2022-11-23T08:31:11.416Z,98847.50
2022-11-23T08:33:39.984Z,98855.06
2022-11-23T08:36:09.344Z,98841.31
2022-11-23T08:38:35.993Z,98831.59
2022-11-23T08:41:03.607Z,98829.53
2022-11-23T08:43:30.370Z,98825.22
2022-11-23T08:46:03.867Z,98814.53
2022-11-23T08:48:32.359Z,98809.13
2022-11-23T08:51:01.637Z,98790.53
2022-11-23T08:53:28.295Z,98788.91
2022-11-23T08:56:04.134Z,98773.81
2022-11-23T08:58:30.953Z,98756.94
2022-11-23T09:00:57.644Z,98744.84
2022-11-23T09:03:33.696Z,98735.31
2022-11-23T09:06:00.922Z,98727.81
2022-11-23T09:08:30.355Z,98723.53
2022-11-23T09:11:01.942Z,98723.91
2022-11-23T09:13:30.988Z,98733.97
2022-11-23T09:16:01.668Z,98715.47
2022-11-23T09:18:30.618Z,98717.69
2022-11-23T09:21:00.109Z,98714.78
2022-11-23T09:23:29.177Z,98720.69
2022-11-23T09:26:01.661Z,98708.41
2022-11-23T09:28:28.525Z,98699.97
2022-11-23T09:31:00.458Z,98708.19
2022-11-23T09:33:33.141Z,98706.19
2022-11-23T09:36:01.990Z,98696.13
2022-11-23T09:38:54.694Z,98706.63
2022-11-23T09:41:34.403Z,98701.25
2022-11-23T09:44:34.392Z,98695.38
2022-11-23T09:47:17.551Z,98693.63
2022-11-23T09:50:07.832Z,98697.81
2022-11-23T09:52:39.765Z,98698.38
2022-11-23T09:55:41.184Z,98701.91
2022-11-23T09:58:13.614Z,98708.41
2022-11-23T10:01:05.087Z,98703.06
2022-11-23T10:03:41.523Z,98709.19
2022-11-23T10:06:21.350Z,98696.69
2022-11-23T10:08:56.099Z,98695.31
2022-11-23T10:11:52.048Z,98696.56
2022-11-23T10:14:38.209Z,98691.81
2022-11-23T10:17:23.265Z,98691.94
2022-11-23T10:20:18.972Z,98690.56
2022-11-23T10:22:48.537Z,98695.56
2022-11-23T10:25:20.198Z,98695.09
2022-11-23T10:27:49.300Z,98697.78
2022-11-23T10:30:17.395Z,98697.91
2022-11-23T10:33:07.383Z,98708.00
2022-11-23T10:35:35.359Z,98687.81
2022-11-23T10:38:19.680Z,98690.13
2022-11-23T10:41:00.883Z,98680.38
2022-11-23T10:43:32.669Z,98679.72
2022-11-23T10:46:24.167Z,98679.94
2022-11-23T10:48:51.941Z,98678.34
2022-11-23T10:51:29.499Z,98671.47
2022-11-23T10:54:04.991Z,98667.16
2022-11-23T10:56:32.987Z,98673.78
2022-11-23T10:59:00.108Z,98659.59
2022-11-23T11:01:29.691Z,98660.44
2022-11-23T11:04:02.972Z,98656.94
2022-11-23T11:06:32.340Z,98660.66
2022-11-23T11:09:03.478Z,98657.63
2022-11-23T11:11:36.281Z,98653.94
2022-11-23T11:14:05.935Z,98648.91
2022-11-23T11:16:54.717Z,98650.06
2022-11-23T11:19:31.924Z,98643.81
2022-11-23T11:22:00.204Z,98650.22
2022-11-23T11:24:36.049Z,98647.06
2022-11-23T11:27:05.274Z,98643.56
2022-11-23T11:29:39.204Z,98645.31
2022-11-23T11:32:20.693Z,98645.44
2022-11-23T11:34:58.777Z,98640.56
2022-11-23T11:37:56.468Z,98647.66
2022-11-23T11:40:48.490Z,98633.81
2022-11-23T11:43:40.025Z,98638.94
2022-11-23T11:46:32.586Z,98637.44
2022-11-23T11:49:23.187Z,98635.94
2022-11-23T11:51:56.606Z,98637.78
2022-11-23T11:55:04.648Z,98637.44
2022-11-23T11:57:40.183Z,98641.72
2022-11-23T12:00:14.146Z,98639.28
2022-11-23T12:02:57.784Z,98648.13
2022-11-23T12:05:26.512Z,98646.72
2022-11-23T12:08:02.156Z,98643.56
2022-11-23T12:10:37.055Z,98645.56
2022-11-23T12:13:10.697Z,98645.78
2022-11-23T12:15:50.398Z,98632.53
2022-11-23T12:18:39.367Z,98634.41
2022-11-23T12:21:09.385Z,98640.09
2022-11-23T12:23:56.550Z,98628.03
2022-11-23T12:26:54.928Z,98642.06
2022-11-23T12:30:15.286Z,98638.59
2022-11-23T12:33:06.221Z,98638.00
2022-11-23T12:35:48.163Z,98632.78
2022-11-23T12:38:47.981Z,98629.88
2022-11-23T12:41:37.350Z,98630.78
2022-11-23T12:48:25.851Z,98626.00
2022-11-23T12:51:08.616Z,98623.38
2022-11-23T12:53:49.201Z,98622.09
2022-11-23T12:56:34.233Z,98621.28
2022-11-23T12:59:01.007Z,98619.91
2022-11-23T13:01:35.204Z,98618.84
2022-11-23T13:04:24.609Z,98625.81
2022-11-23T13:07:37.509Z,98625.91
2022-11-23T13:10:16.275Z,98622.47
2022-11-23T13:12:54.767Z,98619.06
2022-11-23T13:15:48.640Z,98617.59
2022-11-23T13:18:37.179Z,98612.00
2022-11-23T13:21:12.762Z,98607.38
2022-11-23T13:23:39.799Z,98609.47
2022-11-23T13:26:26.406Z,98607.72
2022-11-23T13:28:54.340Z,98603.78
2022-11-23T13:31:41.205Z,98607.81
2022-11-23T13:34:56.872Z,98612.56
2022-11-23T13:37:24.216Z,98608.06
2022-11-23T13:39:50.941Z,98608.28
2022-11-23T13:42:20.428Z,98604.00
2022-11-23T13:44:47.081Z,98593.44
2022-11-23T13:47:14.872Z,98600.16
2022-11-23T13:49:42.426Z,98604.34
2022-11-23T13:52:18.084Z,98614.03
2022-11-23T13:55:07.135Z,98600.84
2022-11-23T13:57:42.301Z,98597.00
2022-11-23T14:00:50.174Z,98606.47
2022-11-23T14:03:51.294Z,98609.16
2022-11-23T14:06:34.330Z,98615.44
2022-11-23T14:09:25.904Z,98621.13
2022-11-23T14:12:01.361Z,98620.75
2022-11-23T14:14:34.457Z,98616.44
2022-11-23T14:17:09.182Z,98619.13
2022-11-23T14:19:47.357Z,98619.13
2022-11-23T14:22:44.081Z,98614.09
2022-11-23T14:25:52.288Z,98619.84
2022-11-23T14:28:34.087Z,98628.75
2022-11-23T14:31:22.712Z,98632.50
2022-11-23T14:34:05.265Z,98619.13
2022-11-23T14:36:38.002Z,98631.25
2022-11-23T14:39:27.351Z,98628.72
2022-11-23T14:41:57.859Z,98635.38
2022-11-23T14:44:38.656Z,98630.56
2022-11-23T14:47:16.528Z,98638.84
2022-11-23T14:49:56.858Z,98636.72
2022-11-23T14:52:28.720Z,98635.19
2022-11-23T14:54:57.524Z,98645.00
2022-11-23T14:57:29.913Z,98631.25
2022-11-23T14:59:59.593Z,98636.56
2022-11-23T15:02:45.064Z,98634.22
2022-11-23T15:05:20.862Z,98639.00
2022-11-23T15:07:56.745Z,98634.38
2022-11-23T15:10:27.554Z,98636.41
2022-11-23T15:12:54.156Z,98631.94
2022-11-23T15:15:22.987Z,98621.91
2022-11-23T15:17:56.353Z,98622.31
2022-11-23T15:20:32.416Z,98607.78
2022-11-23T15:23:02.620Z,98614.34
2022-11-23T15:25:31.916Z,98613.34
2022-11-23T15:27:58.772Z,98603.75
2022-11-23T15:30:30.881Z,98606.84
2022-11-23T15:33:05.386Z,98599.84
2022-11-23T15:35:34.695Z,98599.91
2022-11-23T15:38:02.735Z,98600.22
2022-11-23T15:40:35.796Z,98597.56
2022-11-23T15:43:02.437Z,98606.56
2022-11-23T15:45:36.467Z,98602.34
2022-11-23T15:48:05.589Z,98601.13
2022-11-23T15:50:34.286Z,98609.97
2022-11-23T15:53:01.544Z,98614.03
2022-11-23T15:55:29.643Z,98611.22
2022-11-23T15:58:08.123Z,98613.78
2022-11-23T16:00:34.810Z,98606.44
2022-11-23T16:03:20.920Z,98620.03
2022-11-23T16:06:13.388Z,98620.31
2022-11-23T16:08:41.010Z,98637.63
2022-11-23T16:11:32.843Z,98639.50
2022-11-23T16:14:12.942Z,98630.06
2022-11-23T16:16:51.896Z,98630.31
2022-11-23T16:19:30.781Z,98633.28
2022-11-23T16:22:06.572Z,98634.34
2022-11-23T16:24:40.391Z,98634.88
2022-11-23T16:27:14.517Z,98641.41
2022-11-23T16:29:44.593Z,98635.69
2022-11-23T16:32:42.615Z,98647.97
2022-11-23T16:35:20.767Z,98648.19
2022-11-23T16:37:47.672Z,98643.53
2022-11-23T16:40:14.676Z,98649.44
2022-11-23T16:42:47.265Z,98651.06
2022-11-23T16:45:16.319Z,98665.38
2022-11-23T16:47:52.199Z,98673.53
2022-11-23T16:50:19.041Z,98676.78
2022-11-23T16:52:45.638Z,98676.78
2022-11-23T16:55:14.679Z,98679.44
2022-11-23T16:57:45.604Z,98683.31
2022-11-23T17:00:31.388Z,98688.59
2022-11-23T17:02:58.183Z,98689.44
2022-11-23T17:05:24.941Z,98682.91
2022-11-23T17:07:51.805Z,98693.50
2022-11-23T17:10:18.594Z,98697.53
2022-11-23T17:12:54.290Z,98695.53
2022-11-23T17:15:22.284Z,98699.59
2022-11-23T17:17:49.100Z,98708.56
2022-11-23T17:20:17.090Z,98710.00
2022-11-23T17:22:46.258Z,98714.69
2022-11-23T17:25:15.562Z,98719.19
2022-11-23T17:27:50.776Z,98720.94
2022-11-23T17:30:20.780Z,98721.09
2022-11-23T17:32:50.349Z,98720.25
2022-11-23T17:35:20.163Z,98732.09
2022-11-23T17:37:46.911Z,98727.47
2022-11-23T17:40:18.277Z,98733.66
2022-11-23T17:42:52.763Z,98741.41
2022-11-23T17:45:19.719Z,98737.09
2022-11-23T17:47:46.700Z,98751.31
2022-11-23T17:50:28.696Z,98755.19
2022-11-23T17:52:55.319Z,98757.53
2022-11-23T17:55:21.977Z,98759.59
2022-11-23T17:57:56.139Z,98766.91
2022-11-23T18:00:23.551Z,98775.28
2022-11-23T18:02:50.437Z,98777.09
2022-11-23T18:05:21.505Z,98781.00
2022-11-23T18:07:49.563Z,98786.97
2022-11-23T18:10:16.709Z,98786.56
2022-11-23T18:12:46.965Z,98782.94
2022-11-23T18:15:13.887Z,98789.25
2022-11-23T18:17:48.022Z,98802.53
2022-11-23T18:20:15.727Z,98806.41
2022-11-23T18:22:45.020Z,98801.72
2022-11-23T18:25:14.844Z,98800.47
2022-11-23T18:27:43.976Z,98797.75
2022-11-23T18:30:13.367Z,98816.16
2022-11-23T18:32:45.402Z,98809.81
2022-11-23T18:35:12.007Z,98805.34
2022-11-23T18:37:44.842Z,98795.66
2022-11-23T18:40:17.584Z,98800.72
2022-11-23T18:42:44.346Z,98800.75
2022-11-23T18:45:20.731Z,98797.69
2022-11-23T18:47:47.685Z,98795.28
2022-11-23T18:50:17.648Z,98798.53
2022-11-23T18:52:47.535Z,98796.06
2022-11-23T18:55:20.320Z,98798.34
2022-11-23T18:57:47.339Z,98805.50
2022-11-23T19:00:20.277Z,98809.59
2022-11-23T19:02:58.090Z,98810.66
2022-11-23T19:05:25.572Z,98797.31
2022-11-23T19:07:52.361Z,98804.63
2022-11-23T19:10:22.147Z,98807.31
2022-11-23T19:12:51.786Z,98804.44
2022-11-23T19:15:19.082Z,98809.09
2022-11-23T19:18:11.661Z,98798.25
2022-11-23T19:20:38.532Z,98806.22
2022-11-23T19:23:05.323Z,98804.34
2022-11-23T19:25:32.024Z,98806.03
2022-11-23T19:28:05.450Z,98810.75
2022-11-23T19:30:32.098Z,98817.03
2022-11-23T19:32:58.667Z,98822.34
2022-11-23T19:35:25.287Z,98820.09
2022-11-23T19:37:52.501Z,98829.13
2022-11-23T19:40:19.246Z,98819.03
2022-11-23T19:42:45.907Z,98825.38
2022-11-23T19:45:14.860Z,98820.47
2022-11-23T19:47:41.497Z,98829.41
2022-11-23T19:50:08.849Z,98827.16
2022-11-23T19:53:10.642Z,98836.59
2022-11-23T19:55:27.399Z,98835.75
2022-11-23T19:57:53.982Z,98843.91
2022-11-23T20:00:20.767Z,98843.91
2022-11-23T20:02:47.441Z,98845.88
2022-11-23T20:05:14.261Z,98850.19
2022-11-23T20:07:48.629Z,98857.88
2022-11-23T20:10:16.208Z,98858.31
2022-11-23T20:12:43.055Z,98855.91
2022-11-23T20:15:14.861Z,98854.84
2022-11-23T20:17:41.558Z,98863.31
2022-11-23T20:20:10.522Z,98860.22
2022-11-23T20:22:37.156Z,98855.53
2022-11-23T20:25:04.044Z,98857.94
2022-11-23T20:27:33.066Z,98854.25
2022-11-23T20:29:59.653Z,98870.44
2022-11-23T20:32:26.349Z,98859.75
2022-11-23T20:34:52.953Z,98864.09
2022-11-23T20:37:19.535Z,98859.63
2022-11-23T20:39:46.232Z,98859.75
2022-11-23T20:42:12.895Z,98866.94
2022-11-23T20:44:40.053Z,98864.81
2022-11-23T20:47:07.017Z,98871.59
2022-11-23T20:49:33.902Z,98867.75
2022-11-23T20:52:01.827Z,98879.94
2022-11-23T20:54:28.999Z,98870.56
2022-11-23T20:56:58.081Z,98879.41
2022-11-23T20:59:24.909Z,98874.56
2022-11-23T21:01:59.341Z,98872.91
2022-11-23T21:04:26.208Z,98891.09
2022-11-23T21:06:54.330Z,98888.88
2022-11-23T21:09:23.273Z,98902.16
2022-11-23T21:12:16.111Z,98903.78
2022-11-23T21:14:42.935Z,98907.66
2022-11-23T21:17:09.688Z,98908.88
2022-11-23T21:19:39.288Z,98930.16
2022-11-23T21:22:17.088Z,98937.75
2022-11-23T21:24:43.968Z,98940.00
2022-11-23T21:27:13.103Z,98946.91
2022-11-23T21:29:44.205Z,98955.72
2022-11-23T21:32:11.661Z,98960.44
2022-11-23T21:34:38.441Z,98965.97
2022-11-23T21:37:05.138Z,98977.81
2022-11-23T21:39:33.021Z,98975.97
2022-11-23T21:42:02.307Z,98985.00
2022-11-23T21:44:28.875Z,98993.56
2022-11-23T21:46:55.877Z,99001.97
2022-11-23T21:49:22.589Z,99010.94
2022-11-23T21:51:49.179Z,99010.56
2022-11-23T21:54:18.122Z,99013.22
2022-11-23T21:56:45.898Z,99012.78
2022-11-23T21:59:13.062Z,99020.56
2022-11-23T22:01:40.109Z,99031.00
2022-11-23T22:04:09.916Z,99033.03
2022-11-23T22:06:40.163Z,99031.38
2022-11-23T22:09:09.311Z,99033.03
2022-11-23T22:11:37.444Z,99038.53
2022-11-23T22:14:08.065Z,99050.22
2022-11-23T22:16:36.373Z,99045.50
2022-11-23T22:19:03.416Z,99039.59
2022-11-23T22:21:34.083Z,99039.38
2022-11-23T22:24:00.876Z,99043.28
2022-11-23T22:26:27.867Z,99043.88
2022-11-23T22:28:55.561Z,99046.94
2022-11-23T22:31:25.968Z,99059.81
2022-11-23T22:33:55.238Z,99062.91
2022-11-23T22:36:23.317Z,99062.91
2022-11-23T22:39:02.465Z,99078.84
2022-11-23T22:41:30.277Z,99076.19
2022-11-23T22:43:56.958Z,99080.91
2022-11-23T22:46:24.664Z,99076.59
2022-11-23T22:48:52.521Z,99078.03
2022-11-23T22:51:21.225Z,99086.84
2022-11-23T22:53:47.942Z,99087.03
2022-11-23T22:56:18.699Z,99092.34
2022-11-23T22:58:46.602Z,99100.13
2022-11-23T23:01:18.697Z,99098.69
2022-11-23T23:03:45.798Z,99096.84
2022-11-23T23:06:18.252Z,99104.44
2022-11-23T23:08:46.962Z,99096.44
2022-11-23T23:11:14.566Z,99096.22
2022-11-23T23:13:41.752Z,99101.97
2022-11-23T23:16:11.714Z,99100.94
2022-11-23T23:18:38.743Z,99106.66
2022-11-23T23:21:10.610Z,99102.38
2022-11-23T23:23:41.313Z,99100.13
2022-11-23T23:26:08.568Z,99109.50
2022-11-23T23:28:35.846Z,99116.03
2022-11-23T23:31:05.101Z,99123.81
2022-11-23T23:33:33.397Z,99127.06
2022-11-23T23:36:14.347Z,99126.88
2022-11-23T23:38:41.057Z,99141.19
2022-11-23T23:41:09.198Z,99142.00
2022-11-23T23:43:37.436Z,99151.00
2022-11-23T23:46:06.686Z,99161.03
2022-11-23T23:48:35.234Z,99163.69
2022-11-23T23:51:22.316Z,99169.03
2022-11-23T23:53:50.869Z,99169.44
2022-11-23T23:56:22.921Z,99176.22
2022-11-23T23:58:50.441Z,99182.56
